Time;durP1;ratioP1;P1;durP2;ratioP2;P2;SDS_P1;SDS_P2;PMS_P1;PMS_P2;Temp;Humidity;BMP_temperature;BMP_pressure;BME280_temperature;BME280_humidity;BME280_pressure;Samples;Min_cycle;Max_cycle;Signal;HPM_P1;HPM_P2
2023/01/07 00:00:05;;;;;;;29.40;17.35;;;;;;;;;;5028291;28;20029;-46
2023/01/07 00:02:31;;;;;;;26.30;14.88;;;;;;;;;;5020567;28;20038;-43
2023/01/07 00:04:56;;;;;;;29.48;18.42;;;;;;;;;;5027610;28;20026;-43
2023/01/07 00:07:21;;;;;;;27.55;17.35;;;;;;;;;;5023134;28;20085;-50
2023/01/07 00:09:47;;;;;;;24.52;14.40;;;;;;;;;;5026231;28;20026;-45
2023/01/07 00:12:12;;;;;;;14.88;10.23;;;;;;;;;;5022799;28;20044;-47
2023/01/07 00:14:38;;;;;;;17.83;11.25;;;;;;;;;;5029545;28;20045;-51
2023/01/07 00:17:03;;;;;;;21.90;14.27;;;;;;;;;;5024328;28;20132;-49
2023/01/07 00:19:28;;;;;;;18.88;12.82;;;;;;;;;;5024453;28;20394;-44
2023/01/07 00:21:54;;;;;;;17.73;10.93;;;;;;;;;;5026823;28;20056;-45
2023/01/07 00:24:19;;;;;;;16.08;10.68;;;;;;;;;;5026714;28;20033;-49
2023/01/07 00:26:45;;;;;;;13.25;9.32;;;;;;;;;;5023233;28;20053;-44
2023/01/07 00:29:10;;;;;;;12.35;9.05;;;;;;;;;;5027181;28;20017;-45
2023/01/07 00:31:38;;;;;;;12.93;9.07;;;;;;;;;;5027953;28;20071;-46
2023/01/07 00:36:43;;;;;;;10.95;8.77;;;;;;;;;;5027421;28;20034;-43
2023/01/07 00:39:19;;;;;;;17.58;9.57;;;;;;;;;;5022141;28;20104;-48
2023/01/07 00:44:31;;;;;;;12.90;9.75;;;;;;;;;;5022200;28;20040;-46
2023/01/07 00:46:57;;;;;;;13.30;8.27;;;;;;;;;;5025356;28;20041;-46
2023/01/07 00:49:23;;;;;;;13.93;9.05;;;;;;;;;;5020986;28;20655;-46
2023/01/07 00:51:49;;;;;;;14.48;9.35;;;;;;;;;;5023548;28;20047;-48
2023/01/07 00:54:15;;;;;;;14.15;9.38;;;;;;;;;;5022022;28;20112;-43
2023/01/07 00:56:40;;;;;;;13.35;8.95;;;;;;;;;;5026671;28;20112;-46
2023/01/07 00:59:06;;;;;;;13.95;8.63;;;;;;;;;;5024041;28;20090;-44
2023/01/07 01:01:31;;;;;;;16.67;9.00;;;;;;;;;;5026696;28;20025;-39
2023/01/07 01:03:57;;;;;;;17.27;8.63;;;;;;;;;;5023935;28;20040;-45
2023/01/07 01:06:22;;;;;;;13.90;8.40;;;;;;;;;;5024240;28;20036;-48
2023/01/07 01:08:47;;;;;;;17.23;8.98;;;;;;;;;;5024299;28;20542;-52
2023/01/07 01:11:14;;;;;;;15.25;8.98;;;;;;;;;;5020816;28;20022;-49
2023/01/07 01:13:41;;;;;;;11.82;8.73;;;;;;;;;;5023440;28;20053;-49
2023/01/07 01:16:14;;;;;;;15.13;8.80;;;;;;;;;;5027523;28;20032;-49
2023/01/07 01:18:40;;;;;;;15.70;8.63;;;;;;;;;;5025722;28;20045;-46
2023/01/07 01:21:08;;;;;;;13.40;8.68;;;;;;;;;;5024911;28;20037;-47
2023/01/07 01:23:34;;;;;;;12.98;8.57;;;;;;;;;;5017755;28;20072;-47
2023/01/07 01:26:07;;;;;;;14.48;9.13;;;;;;;;;;5022982;28;20481;-43
2023/01/07 01:28:33;;;;;;;11.52;8.23;;;;;;;;;;5020155;28;20726;-45
2023/01/07 01:30:59;;;;;;;12.43;7.68;;;;;;;;;;5028500;28;20033;-45
2023/01/07 01:33:24;;;;;;;10.13;7.55;;;;;;;;;;5021204;28;20038;-49
2023/01/07 01:35:49;;;;;;;12.25;7.68;;;;;;;;;;5025069;28;20136;-43
2023/01/07 01:38:15;;;;;;;10.02;7.15;;;;;;;;;;5019372;28;20509;-45
2023/01/07 01:40:40;;;;;;;11.98;7.10;;;;;;;;;;5023124;28;20045;-44
2023/01/07 01:43:37;;;;;;;11.02;7.35;;;;;;;;;;5022912;28;20048;-43
2023/01/07 01:46:17;;;;;;;16.13;7.60;;;;;;;;;;5021463;28;20041;-44
2023/01/07 01:48:51;;;;;;;14.60;7.40;;;;;;;;;;5022557;28;20525;-45
2023/01/07 01:51:21;;;;;;;10.27;7.00;;;;;;;;;;5025372;28;20108;-44
2023/01/07 01:53:46;;;;;;;11.27;6.95;;;;;;;;;;5022346;28;20060;-46
2023/01/07 01:56:18;;;;;;;11.00;7.72;;;;;;;;;;5023305;28;20022;-45
2023/01/07 01:58:51;;;;;;;16.85;8.48;;;;;;;;;;5025048;28;20045;-45
2023/01/07 02:01:16;;;;;;;14.35;8.27;;;;;;;;;;5023412;28;20029;-43
2023/01/07 02:03:42;;;;;;;12.52;7.57;;;;;;;;;;5023337;28;20113;-43
2023/01/07 02:06:16;;;;;;;13.90;7.97;;;;;;;;;;5025977;28;20024;-43
2023/01/07 02:08:42;;;;;;;9.35;7.38;;;;;;;;;;5020342;28;20041;-46
2023/01/07 02:11:37;;;;;;;10.55;7.40;;;;;;;;;;5027606;28;20043;-43
2023/01/07 02:14:14;;;;;;;13.95;7.45;;;;;;;;;;5021892;28;20461;-50
2023/01/07 02:16:54;;;;;;;13.20;9.07;;;;;;;;;;5020209;28;20386;-47
2023/01/07 02:19:46;;;;;;;13.98;9.10;;;;;;;;;;5024903;28;20092;-48
2023/01/07 02:22:24;;;;;;;11.27;8.57;;;;;;;;;;5024041;28;20037;-44
2023/01/07 02:24:59;;;;;;;9.75;7.20;;;;;;;;;;5021099;28;20029;-46
2023/01/07 02:28:02;;;;;;;7.80;6.07;;;;;;;;;;5019362;28;20422;-43
2023/01/07 02:30:39;;;;;;;10.75;7.45;;;;;;;;;;5020829;28;20124;-47
2023/01/07 02:33:12;;;;;;;16.08;6.90;;;;;;;;;;5021873;28;20560;-44
2023/01/07 02:36:07;;;;;;;11.27;6.85;;;;;;;;;;5023442;28;20040;-45
2023/01/07 02:38:56;;;;;;;9.65;6.63;;;;;;;;;;5023873;28;20042;-43
2023/01/07 02:41:29;;;;;;;7.53;5.70;;;;;;;;;;5025070;28;20409;-43
2023/01/07 02:44:05;;;;;;;7.30;6.05;;;;;;;;;;5023487;28;20053;-48
2023/01/07 02:46:49;;;;;;;9.23;5.88;;;;;;;;;;5021274;28;20037;-43
2023/01/07 02:49:17;;;;;;;6.55;5.30;;;;;;;;;;5025155;28;20393;-45
2023/01/07 02:51:43;;;;;;;11.18;5.43;;;;;;;;;;5026372;28;20113;-48
2023/01/07 02:54:18;;;;;;;11.57;5.50;;;;;;;;;;5028589;28;20112;-43
2023/01/07 02:56:55;;;;;;;11.80;5.38;;;;;;;;;;5024751;28;20036;-43
2023/01/07 02:59:29;;;;;;;10.25;5.72;;;;;;;;;;5022630;28;20029;-49
2023/01/07 03:02:23;;;;;;;6.65;4.88;;;;;;;;;;5026816;28;20049;-45
2023/01/07 03:05:01;;;;;;;6.95;5.38;;;;;;;;;;5026243;28;20151;-46
2023/01/07 03:07:35;;;;;;;8.15;5.65;;;;;;;;;;5026777;28;20402;-44
2023/01/07 03:10:30;;;;;;;8.05;6.00;;;;;;;;;;5030461;28;20029;-47
2023/01/07 03:13:10;;;;;;;9.20;5.55;;;;;;;;;;5024455;28;20145;-45
2023/01/07 03:15:56;;;;;;;7.45;5.28;;;;;;;;;;5023370;28;20033;-46
2023/01/07 03:18:27;;;;;;;10.35;5.43;;;;;;;;;;5030772;28;20116;-44
2023/01/07 03:20:58;;;;;;;12.32;5.15;;;;;;;;;;5026753;28;20503;-44
2023/01/07 03:23:26;;;;;;;7.77;6.43;;;;;;;;;;5027949;28;20045;-44
2023/01/07 03:25:53;;;;;;;7.85;5.30;;;;;;;;;;5026727;28;20528;-46
2023/01/07 03:28:24;;;;;;;10.52;5.20;;;;;;;;;;5029067;28;20064;-46
2023/01/07 03:30:53;;;;;;;8.70;5.07;;;;;;;;;;5029402;28;20099;-48
2023/01/07 03:33:41;;;;;;;9.13;5.10;;;;;;;;;;5021755;28;20045;-46
2023/01/07 03:36:10;;;;;;;6.30;4.78;;;;;;;;;;5026951;28;20083;-44
2023/01/07 03:38:37;;;;;;;8.65;5.47;;;;;;;;;;5029308;28;20038;-46
2023/01/07 03:41:03;;;;;;;9.45;5.35;;;;;;;;;;5026005;28;20025;-43
2023/01/07 03:43:28;;;;;;;7.88;5.38;;;;;;;;;;5025400;28;20091;-43
2023/01/07 03:45:56;;;;;;;8.82;5.47;;;;;;;;;;5025427;28;20029;-43
2023/01/07 03:48:22;;;;;;;5.60;5.00;;;;;;;;;;5026001;28;23024;-50
2023/01/07 03:50:47;;;;;;;7.13;5.70;;;;;;;;;;5027454;28;20038;-43
2023/01/07 03:53:13;;;;;;;11.35;7.25;;;;;;;;;;5023429;28;20088;-43
2023/01/07 03:55:38;;;;;;;10.23;5.72;;;;;;;;;;5025349;28;20374;-47
2023/01/07 03:58:04;;;;;;;8.07;5.38;;;;;;;;;;5025761;28;20410;-46
2023/01/07 04:00:29;;;;;;;9.07;5.63;;;;;;;;;;5028411;28;20020;-46
2023/01/07 04:02:54;;;;;;;9.70;5.70;;;;;;;;;;5018631;28;20786;-46
2023/01/07 04:05:20;;;;;;;10.85;5.28;;;;;;;;;;5024142;28;20021;-44
2023/01/07 04:07:45;;;;;;;6.68;5.10;;;;;;;;;;5024252;28;20056;-49
2023/01/07 04:10:11;;;;;;;8.95;5.10;;;;;;;;;;5022072;28;20052;-44
2023/01/07 04:12:36;;;;;;;8.43;5.07;;;;;;;;;;5025699;28;20033;-45
2023/01/07 04:15:02;;;;;;;6.35;5.07;;;;;;;;;;5023964;28;20038;-48
2023/01/07 04:17:28;;;;;;;10.70;5.50;;;;;;;;;;5025115;28;20533;-46
2023/01/07 04:19:53;;;;;;;10.93;5.10;;;;;;;;;;5023571;28;20053;-49
2023/01/07 04:22:18;;;;;;;7.90;5.15;;;;;;;;;;5024409;28;20166;-45
2023/01/07 04:24:44;;;;;;;9.68;4.80;;;;;;;;;;5025363;28;20028;-44
2023/01/07 04:27:09;;;;;;;9.60;4.57;;;;;;;;;;5022553;28;20373;-50
2023/01/07 04:29:35;;;;;;;6.50;4.45;;;;;;;;;;5026853;28;20033;-47
2023/01/07 04:32:00;;;;;;;6.32;4.90;;;;;;;;;;5027200;28;20041;-43
2023/01/07 04:34:25;;;;;;;7.18;4.78;;;;;;;;;;5025517;28;20435;-47
2023/01/07 04:36:51;;;;;;;6.78;4.80;;;;;;;;;;5025436;28;20045;-52
2023/01/07 04:39:17;;;;;;;8.68;4.82;;;;;;;;;;5024351;28;20034;-44
2023/01/07 04:41:43;;;;;;;7.90;4.80;;;;;;;;;;5026121;28;20033;-48
2023/01/07 04:44:08;;;;;;;6.15;4.57;;;;;;;;;;5024976;28;20068;-50
2023/01/07 04:46:34;;;;;;;5.22;3.80;;;;;;;;;;5025552;28;20075;-49
2023/01/07 04:48:59;;;;;;;6.50;4.55;;;;;;;;;;5023449;28;20048;-46
2023/01/07 04:51:25;;;;;;;7.07;4.53;;;;;;;;;;5024848;28;20040;-48
2023/01/07 04:53:50;;;;;;;4.45;3.92;;;;;;;;;;5026931;28;20119;-45
2023/01/07 04:56:16;;;;;;;8.75;4.38;;;;;;;;;;5020965;28;20026;-49
2023/01/07 04:58:42;;;;;;;8.82;4.30;;;;;;;;;;5028005;28;20598;-44
2023/01/07 05:01:08;;;;;;;5.35;3.75;;;;;;;;;;5022515;28;20475;-50
2023/01/07 05:03:33;;;;;;;6.07;4.20;;;;;;;;;;5024217;28;20037;-52
2023/01/07 05:05:59;;;;;;;6.20;3.92;;;;;;;;;;5021540;28;20080;-52
2023/01/07 05:08:25;;;;;;;5.82;3.90;;;;;;;;;;5026326;28;20188;-48
2023/01/07 05:10:51;;;;;;;4.38;3.97;;;;;;;;;;5027281;28;20029;-46
2023/01/07 05:13:19;;;;;;;4.97;3.60;;;;;;;;;;5025799;28;20049;-50
2023/01/07 05:15:44;;;;;;;11.93;4.45;;;;;;;;;;5022959;28;20124;-50
2023/01/07 05:18:10;;;;;;;8.93;4.25;;;;;;;;;;5026068;28;20120;-45
2023/01/07 05:20:35;;;;;;;7.88;4.15;;;;;;;;;;5022397;28;20026;-48
2023/01/07 05:23:01;;;;;;;6.85;3.88;;;;;;;;;;5022027;28;20044;-45
2023/01/07 05:25:26;;;;;;;6.10;3.88;;;;;;;;;;5023213;28;20856;-50
2023/01/07 05:27:52;;;;;;;5.30;4.05;;;;;;;;;;5024484;28;20037;-52
2023/01/07 05:30:17;;;;;;;5.90;4.07;;;;;;;;;;5025331;28;20032;-43
2023/01/07 05:32:42;;;;;;;6.85;4.30;;;;;;;;;;5024148;28;20064;-44
2023/01/07 05:35:08;;;;;;;8.45;4.00;;;;;;;;;;5024171;28;20025;-45
2023/01/07 05:37:34;;;;;;;4.57;4.00;;;;;;;;;;5024247;28;20052;-44
2023/01/07 05:39:59;;;;;;;9.18;3.72;;;;;;;;;;5023680;28;20045;-44
2023/01/07 05:42:24;;;;;;;6.10;4.22;;;;;;;;;;5022853;28;20037;-44
2023/01/07 05:44:50;;;;;;;7.18;4.00;;;;;;;;;;5025298;28;20017;-46
2023/01/07 05:47:15;;;;;;;8.40;4.30;;;;;;;;;;5024089;28;20045;-42
2023/01/07 05:49:41;;;;;;;5.18;4.35;;;;;;;;;;5024808;28;20030;-42
2023/01/07 05:52:06;;;;;;;5.68;4.50;;;;;;;;;;5024321;28;20033;-44
2023/01/07 05:54:31;;;;;;;5.47;3.97;;;;;;;;;;5024697;28;20034;-45
2023/01/07 05:56:57;;;;;;;5.05;4.28;;;;;;;;;;5022352;28;20049;-45
2023/01/07 05:59:22;;;;;;;4.70;4.00;;;;;;;;;;5025968;28;20040;-43
2023/01/07 06:01:48;;;;;;;7.07;4.38;;;;;;;;;;5023409;28;20084;-43
2023/01/07 06:04:13;;;;;;;5.78;4.13;;;;;;;;;;5019164;28;20042;-45
2023/01/07 06:06:38;;;;;;;6.85;4.00;;;;;;;;;;5019327;28;20021;-45
2023/01/07 06:09:04;;;;;;;6.65;4.18;;;;;;;;;;5025553;28;21172;-43
2023/01/07 06:11:29;;;;;;;5.57;4.32;;;;;;;;;;5023086;28;20359;-44
2023/01/07 06:13:54;;;;;;;12.23;4.75;;;;;;;;;;5019378;28;20132;-45
2023/01/07 06:16:20;;;;;;;7.20;4.90;;;;;;;;;;5021570;28;20553;-46
2023/01/07 06:18:45;;;;;;;7.68;4.53;;;;;;;;;;5025268;28;20051;-43
2023/01/07 06:21:11;;;;;;;5.72;4.15;;;;;;;;;;5022660;28;20033;-49
2023/01/07 06:23:36;;;;;;;7.05;3.55;;;;;;;;;;5024267;28;20072;-43
2023/01/07 06:26:02;;;;;;;6.15;3.97;;;;;;;;;;5025243;28;20025;-44
2023/01/07 06:28:28;;;;;;;11.65;4.78;;;;;;;;;;5023302;28;20034;-44
2023/01/07 06:30:53;;;;;;;11.70;4.47;;;;;;;;;;5025625;28;20037;-43
2023/01/07 06:33:19;;;;;;;5.85;4.53;;;;;;;;;;5023801;28;20099;-43
2023/01/07 06:35:45;;;;;;;6.50;4.07;;;;;;;;;;5020695;28;20441;-47
2023/01/07 06:38:11;;;;;;;9.80;5.88;;;;;;;;;;5022574;28;20494;-48
2023/01/07 06:40:36;;;;;;;8.20;4.05;;;;;;;;;;5027452;28;20067;-45
2023/01/07 06:43:01;;;;;;;5.10;4.60;;;;;;;;;;5022290;28;20038;-43
2023/01/07 06:45:27;;;;;;;6.90;4.68;;;;;;;;;;5020295;28;20037;-45
2023/01/07 06:47:54;;;;;;;5.68;4.55;;;;;;;;;;5023706;28;20053;-47
2023/01/07 06:50:20;;;;;;;5.60;4.05;;;;;;;;;;5024110;28;20033;-44
2023/01/07 06:52:45;;;;;;;7.03;4.20;;;;;;;;;;5022140;28;20399;-43
2023/01/07 06:55:10;;;;;;;5.63;4.22;;;;;;;;;;5020142;28;20663;-47
2023/01/07 06:57:36;;;;;;;12.68;4.45;;;;;;;;;;5022394;28;20041;-46
2023/01/07 07:00:02;;;;;;;10.02;4.05;;;;;;;;;;5027002;28;20025;-49
2023/01/07 07:02:28;;;;;;;12.23;4.68;;;;;;;;;;5021109;28;20499;-46
2023/01/07 07:04:53;;;;;;;7.53;4.28;;;;;;;;;;5022286;28;20112;-42
2023/01/07 07:07:20;;;;;;;7.72;4.45;;;;;;;;;;5021297;28;20029;-47
2023/01/07 07:09:46;;;;;;;7.57;4.20;;;;;;;;;;5022805;28;20391;-45
2023/01/07 07:12:12;;;;;;;9.57;5.38;;;;;;;;;;5025049;28;20061;-46
2023/01/07 07:14:37;;;;;;;7.32;5.20;;;;;;;;;;5026096;28;20492;-43
2023/01/07 07:17:03;;;;;;;7.20;4.85;;;;;;;;;;5018909;28;20152;-51
2023/01/07 07:19:29;;;;;;;8.65;5.43;;;;;;;;;;5026162;28;20469;-50
2023/01/07 07:21:54;;;;;;;6.90;5.38;;;;;;;;;;5024683;28;20065;-46
2023/01/07 07:24:20;;;;;;;10.25;5.40;;;;;;;;;;5023676;28;20025;-45
2023/01/07 07:26:45;;;;;;;5.82;5.30;;;;;;;;;;5019959;28;20466;-43
2023/01/07 07:29:11;;;;;;;9.50;5.40;;;;;;;;;;5021204;28;20095;-44
2023/01/07 07:31:36;;;;;;;6.22;5.13;;;;;;;;;;5018467;28;20037;-43
2023/01/07 07:34:02;;;;;;;9.57;5.43;;;;;;;;;;5025415;28;20437;-46
2023/01/07 07:36:27;;;;;;;7.47;5.25;;;;;;;;;;5023633;28;20762;-48
2023/01/07 07:38:53;;;;;;;10.18;5.50;;;;;;;;;;5025574;28;20120;-46
2023/01/07 07:41:19;;;;;;;11.00;5.05;;;;;;;;;;5027262;28;20100;-43
2023/01/07 07:43:44;;;;;;;5.95;4.97;;;;;;;;;;5025333;28;20463;-42
2023/01/07 07:46:10;;;;;;;5.90;3.95;;;;;;;;;;5023348;28;20041;-43
2023/01/07 07:48:35;;;;;;;7.47;4.20;;;;;;;;;;5027880;28;20048;-46
2023/01/07 07:51:00;;;;;;;7.10;3.70;;;;;;;;;;5026376;28;20069;-46
2023/01/07 07:53:26;;;;;;;6.38;4.20;;;;;;;;;;5025550;28;20718;-45
2023/01/07 07:55:52;;;;;;;7.28;4.15;;;;;;;;;;5029468;28;20041;-47
2023/01/07 07:58:17;;;;;;;7.43;3.78;;;;;;;;;;5026142;28;20062;-47
2023/01/07 08:00:43;;;;;;;9.20;4.35;;;;;;;;;;5026242;28;20065;-43
2023/01/07 08:03:09;;;;;;;5.75;3.88;;;;;;;;;;5028115;28;20112;-44
2023/01/07 08:05:35;;;;;;;5.50;3.80;;;;;;;;;;5026426;28;20076;-46
2023/01/07 08:08:00;;;;;;;7.78;4.15;;;;;;;;;;5025904;28;20495;-52
2023/01/07 08:10:27;;;;;;;7.60;3.63;;;;;;;;;;5025743;28;20536;-50
2023/01/07 08:12:53;;;;;;;9.43;4.28;;;;;;;;;;5018704;28;20054;-48
2023/01/07 08:15:18;;;;;;;6.63;4.07;;;;;;;;;;5021929;28;20043;-44
2023/01/07 08:17:43;;;;;;;11.82;4.25;;;;;;;;;;5024132;28;20037;-46
2023/01/07 08:20:10;;;;;;;4.85;4.35;;;;;;;;;;5024644;28;20068;-47
2023/01/07 08:22:35;;;;;;;9.90;4.95;;;;;;;;;;5023387;28;20060;-49
2023/01/07 08:25:01;;;;;;;5.28;3.80;;;;;;;;;;5023379;28;20056;-43
2023/01/07 08:27:27;;;;;;;5.93;3.90;;;;;;;;;;5022320;28;20053;-42
2023/01/07 08:29:53;;;;;;;8.52;3.38;;;;;;;;;;5022911;28;20032;-51
2023/01/07 08:32:18;;;;;;;7.10;3.78;;;;;;;;;;5021923;28;20041;-45
2023/01/07 08:34:44;;;;;;;7.10;4.28;;;;;;;;;;5022105;28;20541;-47
2023/01/07 08:37:09;;;;;;;5.03;4.03;;;;;;;;;;5021453;28;20034;-49
2023/01/07 08:39:35;;;;;;;9.77;4.22;;;;;;;;;;5022514;28;20394;-48
2023/01/07 08:42:00;;;;;;;11.73;4.20;;;;;;;;;;5021798;28;20487;-46
2023/01/07 08:44:26;;;;;;;14.30;4.07;;;;;;;;;;5022476;28;20025;-50
2023/01/07 08:46:52;;;;;;;8.27;4.13;;;;;;;;;;5020211;28;20461;-43
2023/01/07 08:49:17;;;;;;;4.65;4.18;;;;;;;;;;5019777;28;20053;-47
2023/01/07 08:51:43;;;;;;;4.22;3.72;;;;;;;;;;5021899;28;20025;-49
2023/01/07 08:54:08;;;;;;;5.40;4.07;;;;;;;;;;5025442;28;20038;-49
2023/01/07 08:56:33;;;;;;;5.28;4.07;;;;;;;;;;5023479;28;20030;-43
2023/01/07 08:58:59;;;;;;;5.05;4.15;;;;;;;;;;5025917;28;20041;-46
2023/01/07 09:01:24;;;;;;;17.45;4.10;;;;;;;;;;5023406;28;20430;-49
2023/01/07 09:03:50;;;;;;;6.70;4.00;;;;;;;;;;5020961;28;20049;-49
2023/01/07 09:06:15;;;;;;;7.13;4.00;;;;;;;;;;5023029;28;20074;-49
2023/01/07 09:08:41;;;;;;;6.50;3.88;;;;;;;;;;5022508;28;20405;-52
2023/01/07 09:11:06;;;;;;;8.30;3.80;;;;;;;;;;5025015;28;20100;-44
2023/01/07 09:13:31;;;;;;;10.77;3.58;;;;;;;;;;5022663;28;20057;-47
2023/01/07 09:15:58;;;;;;;5.30;4.00;;;;;;;;;;5020116;28;20033;-48
2023/01/07 09:18:24;;;;;;;4.20;3.70;;;;;;;;;;5021915;28;20041;-50
2023/01/07 09:20:49;;;;;;;8.30;3.90;;;;;;;;;;5015936;28;20162;-49
2023/01/07 09:23:15;;;;;;;7.38;3.65;;;;;;;;;;5021673;28;20037;-49
2023/01/07 09:25:41;;;;;;;5.57;3.97;;;;;;;;;;5020651;28;20049;-44
2023/01/07 09:28:06;;;;;;;5.25;3.47;;;;;;;;;;5023984;28;20049;-46
2023/01/07 09:30:31;;;;;;;6.90;3.40;;;;;;;;;;5025176;28;20033;-49
2023/01/07 09:32:57;;;;;;;7.72;3.80;;;;;;;;;;5019005;28;20034;-44
2023/01/07 09:35:22;;;;;;;5.90;4.00;;;;;;;;;;5024161;28;20049;-45
2023/01/07 09:37:48;;;;;;;7.57;4.90;;;;;;;;;;5019723;28;20041;-51
2023/01/07 09:40:24;;;;;;;9.80;5.43;;;;;;;;;;5022998;28;20029;-49
2023/01/07 09:43:01;;;;;;;10.43;5.15;;;;;;;;;;5022981;28;20041;-50
2023/01/07 09:45:35;;;;;;;8.02;4.40;;;;;;;;;;5021512;28;20025;-47
2023/01/07 09:48:04;;;;;;;12.38;3.90;;;;;;;;;;5021279;28;20038;-48
2023/01/07 09:50:43;;;;;;;6.82;3.58;;;;;;;;;;5022025;28;20029;-49
2023/01/07 09:53:33;;;;;;;5.68;3.80;;;;;;;;;;5021026;28;20049;-49
2023/01/07 09:55:59;;;;;;;8.25;3.40;;;;;;;;;;5025899;28;20054;-48
2023/01/07 09:58:25;;;;;;;5.88;3.00;;;;;;;;;;5023064;28;20048;-49
2023/01/07 10:01:14;;;;;;;6.57;3.10;;;;;;;;;;5025798;28;20029;-52
2023/01/07 10:04:08;;;;;;;7.85;3.25;;;;;;;;;;5019129;28;20539;-44
2023/01/07 10:06:55;;;;;;;5.20;3.40;;;;;;;;;;5023074;28;20093;-48
2023/01/07 10:09:55;;;;;;;9.45;3.13;;;;;;;;;;5022043;28;20667;-50
2023/01/07 10:12:33;;;;;;;5.82;3.25;;;;;;;;;;5021353;28;20156;-50
2023/01/07 10:15:01;;;;;;;6.88;3.05;;;;;;;;;;5025812;28;20044;-44
2023/01/07 10:17:56;;;;;;;4.90;3.10;;;;;;;;;;5023155;28;20060;-50
2023/01/07 10:20:31;;;;;;;7.35;2.95;;;;;;;;;;5024427;28;20060;-50
2023/01/07 10:23:11;;;;;;;4.75;3.50;;;;;;;;;;5021384;28;20043;-46
2023/01/07 10:25:46;;;;;;;4.82;3.08;;;;;;;;;;5017285;28;20478;-43
2023/01/07 10:28:39;;;;;;;8.63;3.63;;;;;;;;;;5021681;28;20604;-48
2023/01/07 10:31:07;;;;;;;8.73;3.40;;;;;;;;;;5023904;28;20029;-46
2023/01/07 10:33:33;;;;;;;6.00;3.78;;;;;;;;;;5025013;28;20037;-46
2023/01/07 10:36:21;;;;;;;6.20;3.13;;;;;;;;;;5024956;28;20063;-49
2023/01/07 10:39:10;;;;;;;6.72;3.33;;;;;;;;;;5022805;28;20068;-49
2023/01/07 10:41:55;;;;;;;8.30;3.28;;;;;;;;;;5021848;28;20409;-49
2023/01/07 10:44:45;;;;;;;10.27;3.83;;;;;;;;;;5024989;28;20117;-46
2023/01/07 10:47:32;;;;;;;4.38;2.75;;;;;;;;;;5023647;28;20052;-49
2023/01/07 10:50:38;;;;;;;6.32;2.80;;;;;;;;;;5019668;28;20907;-48
2023/01/07 10:53:19;;;;;;;5.18;3.08;;;;;;;;;;5017973;28;20049;-48
2023/01/07 10:55:50;;;;;;;2.97;2.78;;;;;;;;;;5016208;28;20091;-46
2023/01/07 10:58:16;;;;;;;6.40;3.00;;;;;;;;;;5022197;28;20038;-45
2023/01/07 11:00:45;;;;;;;4.85;3.13;;;;;;;;;;5025108;28;20045;-48
2023/01/07 11:03:22;;;;;;;10.90;2.60;;;;;;;;;;5022378;28;20037;-49
2023/01/07 11:05:55;;;;;;;8.02;3.65;;;;;;;;;;5021917;28;20043;-49
2023/01/07 11:08:41;;;;;;;4.20;3.05;;;;;;;;;;5019427;28;20042;-47
2023/01/07 11:11:14;;;;;;;6.78;2.75;;;;;;;;;;5021121;28;20727;-50
2023/01/07 11:13:43;;;;;;;4.90;2.92;;;;;;;;;;5022993;28;20863;-49
2023/01/07 11:16:16;;;;;;;5.35;3.17;;;;;;;;;;5025370;28;20120;-48
2023/01/07 11:18:50;;;;;;;3.83;3.00;;;;;;;;;;5023236;28;20462;-49
2023/01/07 11:21:34;;;;;;;6.82;3.17;;;;;;;;;;5025404;28;20060;-51
2023/01/07 11:24:00;;;;;;;8.48;3.30;;;;;;;;;;5023346;28;20410;-45
2023/01/07 11:26:29;;;;;;;10.15;2.95;;;;;;;;;;5026061;28;20032;-52
2023/01/07 11:29:12;;;;;;;3.30;3.00;;;;;;;;;;5025611;28;20041;-48
2023/01/07 11:31:53;;;;;;;7.55;3.20;;;;;;;;;;5027664;28;20083;-52
2023/01/07 11:35:00;;;;;;;3.17;2.85;;;;;;;;;;5024988;28;20034;-49
2023/01/07 11:37:38;;;;;;;8.52;2.75;;;;;;;;;;5003776;28;20582;-50
2023/01/07 11:40:18;;;;;;;3.88;2.72;;;;;;;;;;5003705;28;20132;-52
2023/01/07 11:42:57;;;;;;;5.63;3.25;;;;;;;;;;5006362;28;20033;-52
2023/01/07 11:45:31;;;;;;;3.70;2.67;;;;;;;;;;5007251;28;20049;-50
2023/01/07 11:48:05;;;;;;;2.47;2.28;;;;;;;;;;5006129;28;20673;-45
2023/01/07 11:50:42;;;;;;;5.40;2.75;;;;;;;;;;5006532;28;20156;-45
2023/01/07 11:53:13;;;;;;;2.67;2.47;;;;;;;;;;5000617;28;20849;-46
2023/01/07 11:55:59;;;;;;;4.37;2.43;;;;;;;;;;5001928;28;20693;-45
2023/01/07 11:58:28;;;;;;;4.72;2.63;;;;;;;;;;5006451;28;20585;-44
2023/01/07 12:01:08;;;;;;;3.45;2.40;;;;;;;;;;5005917;28;20036;-49
2023/01/07 12:03:40;;;;;;;8.70;3.00;;;;;;;;;;5005647;28;20050;-47
2023/01/07 12:06:10;;;;;;;8.43;2.67;;;;;;;;;;5005820;28;20160;-47
2023/01/07 12:08:39;;;;;;;7.10;3.05;;;;;;;;;;5005163;28;20515;-50
2023/01/07 12:11:10;;;;;;;6.60;2.42;;;;;;;;;;5002802;28;20209;-44
2023/01/07 12:13:39;;;;;;;4.13;2.95;;;;;;;;;;5020485;28;20057;-44
2023/01/07 12:16:06;;;;;;;3.50;2.63;;;;;;;;;;5025796;28;20029;-44
2023/01/07 12:18:50;;;;;;;7.32;3.00;;;;;;;;;;5023426;28;20065;-49
2023/01/07 12:21:21;;;;;;;5.07;2.78;;;;;;;;;;5021593;28;20109;-45
2023/01/07 12:24:08;;;;;;;7.88;2.83;;;;;;;;;;5021620;28;20057;-45
2023/01/07 12:27:05;;;;;;;4.10;2.47;;;;;;;;;;5026005;28;20112;-44
2023/01/07 12:29:49;;;;;;;4.90;2.60;;;;;;;;;;5026055;28;20041;-45
2023/01/07 12:32:35;;;;;;;4.75;3.00;;;;;;;;;;5023875;28;20072;-44
2023/01/07 12:35:07;;;;;;;3.53;2.75;;;;;;;;;;5021360;28;20053;-44
2023/01/07 12:37:38;;;;;;;4.38;2.38;;;;;;;;;;5022750;28;21017;-43
2023/01/07 12:40:30;;;;;;;5.90;2.63;;;;;;;;;;5028058;28;20041;-43
2023/01/07 12:43:02;;;;;;;10.48;2.42;;;;;;;;;;5019472;28;20560;-44
2023/01/07 12:45:46;;;;;;;4.78;2.50;;;;;;;;;;5021140;28;20440;-45
2023/01/07 12:48:35;;;;;;;3.83;2.50;;;;;;;;;;5023999;28;20038;-46
2023/01/07 12:51:05;;;;;;;8.10;2.75;;;;;;;;;;5023518;28;20033;-49
2023/01/07 12:53:41;;;;;;;4.47;2.75;;;;;;;;;;5024169;28;20061;-44
2023/01/07 12:56:21;;;;;;;5.95;3.05;;;;;;;;;;5024383;28;20025;-45
2023/01/07 12:58:55;;;;;;;4.28;2.65;;;;;;;;;;5023198;28;20124;-44
2023/01/07 13:01:25;;;;;;;6.95;2.95;;;;;;;;;;5021206;28;20044;-44
2023/01/07 13:03:56;;;;;;;6.97;2.67;;;;;;;;;;5023429;28;20053;-46
2023/01/07 13:06:42;;;;;;;2.90;2.50;;;;;;;;;;5024198;28;20025;-47
2023/01/07 13:09:13;;;;;;;5.20;2.58;;;;;;;;;;5023623;28;20156;-47
2023/01/07 14:19:34;;;;;;;2.65;1.88;;;;;;;;;;5010130;28;20616;-45
2023/01/07 14:22:37;;;;;;;4.50;2.08;;;;;;;;;;5017744;28;21004;-44
2023/01/07 14:25:05;;;;;;;11.07;2.20;;;;;;;;;;5010349;28;20512;-44
2023/01/07 14:27:39;;;;;;;12.68;2.47;;;;;;;;;;5015124;28;20084;-44
2023/01/07 14:30:27;;;;;;;3.95;2.15;;;;;;;;;;5016672;28;20034;-43
2023/01/07 14:33:02;;;;;;;5.47;1.77;;;;;;;;;;5015518;28;20046;-45
2023/01/07 14:35:32;;;;;;;5.32;2.08;;;;;;;;;;5013911;28;20041;-46
2023/01/07 14:37:58;;;;;;;5.65;2.20;;;;;;;;;;5014884;28;20050;-42
2023/01/07 14:40:29;;;;;;;4.15;2.28;;;;;;;;;;5011898;28;20522;-44
2023/01/07 14:42:57;;;;;;;5.53;1.83;;;;;;;;;;5015792;28;20037;-42
2023/01/07 14:45:43;;;;;;;5.03;2.30;;;;;;;;;;5012542;28;20038;-47
2023/01/07 14:48:08;;;;;;;3.00;2.15;;;;;;;;;;5005055;28;20141;-45
2023/01/07 14:50:52;;;;;;;6.22;2.22;;;;;;;;;;4996065;28;20169;-46
2023/01/07 14:53:44;;;;;;;7.00;2.03;;;;;;;;;;4992592;28;20206;-46
2023/01/07 14:56:12;;;;;;;7.35;1.92;;;;;;;;;;4986115;28;20065;-44
2023/01/07 14:58:58;;;;;;;2.53;1.67;;;;;;;;;;4992675;28;20054;-45
2023/01/07 15:01:27;;;;;;;4.35;1.92;;;;;;;;;;5003268;28;20046;-44
2023/01/07 15:04:18;;;;;;;4.78;1.80;;;;;;;;;;5021851;28;20452;-46
2023/01/07 15:06:44;;;;;;;6.20;2.10;;;;;;;;;;5016413;28;20026;-49
2023/01/07 15:17:50;;;;;;;6.93;2.42;;;;;;;;;;5027748;28;20059;-44
2023/01/07 15:20:16;;;;;;;8.98;5.07;;;;;;;;;;5026152;28;20394;-47
2023/01/07 15:22:50;;;;;;;10.48;6.28;;;;;;;;;;5038071;28;20105;-44
2023/01/07 15:25:23;;;;;;;5.22;3.90;;;;;;;;;;5037144;28;20478;-47
2023/01/07 15:28:16;;;;;;;7.45;2.50;;;;;;;;;;5042205;28;20040;-45
2023/01/07 15:30:47;;;;;;;6.38;2.38;;;;;;;;;;5027524;28;20036;-49
2023/01/07 15:33:31;;;;;;;3.63;1.95;;;;;;;;;;5027422;28;20045;-50
2023/01/07 15:35:56;;;;;;;4.70;2.40;;;;;;;;;;5029225;28;20033;-44
2023/01/07 15:38:33;;;;;;;5.35;2.15;;;;;;;;;;5026909;28;20045;-43
2023/01/07 15:40:59;;;;;;;4.90;1.88;;;;;;;;;;5024022;28;20120;-44
2023/01/07 15:43:27;;;;;;;6.25;2.10;;;;;;;;;;5024754;28;20515;-44
2023/01/07 15:46:04;;;;;;;9.95;1.83;;;;;;;;;;5025726;28;20120;-49
2023/01/07 15:48:30;;;;;;;2.92;1.80;;;;;;;;;;5021221;28;20133;-47
2023/01/07 15:50:55;;;;;;;4.65;2.08;;;;;;;;;;5024675;28;20109;-47
2023/01/07 15:53:24;;;;;;;6.20;2.05;;;;;;;;;;5025447;28;20049;-49
2023/01/07 15:56:03;;;;;;;2.55;1.80;;;;;;;;;;5026233;28;20115;-45
2023/01/07 15:58:33;;;;;;;4.05;2.13;;;;;;;;;;5029943;28;20041;-47
2023/01/07 16:01:00;;;;;;;7.22;3.20;;;;;;;;;;5028309;28;20033;-46
2023/01/07 16:03:26;;;;;;;4.22;2.50;;;;;;;;;;5028908;28;20096;-46
2023/01/07 16:05:52;;;;;;;6.82;2.50;;;;;;;;;;5028042;28;20705;-47
2023/01/07 16:08:20;;;;;;;4.68;2.33;;;;;;;;;;5027655;28;20065;-45
2023/01/07 16:10:58;;;;;;;6.00;2.08;;;;;;;;;;5026872;28;20359;-46
2023/01/07 16:13:23;;;;;;;5.43;1.70;;;;;;;;;;5025836;28;20040;-50
2023/01/07 16:15:53;;;;;;;5.85;2.13;;;;;;;;;;5023077;28;20029;-51
2023/01/07 16:18:19;;;;;;;7.53;2.33;;;;;;;;;;5017793;28;20042;-47
2023/01/07 16:21:04;;;;;;;13.60;3.00;;;;;;;;;;5025139;28;20088;-44